createdAt,value
2018-02-09T00:17:36.310Z,78.54
2018-02-09T01:02:37.170Z,77.21
2018-02-09T02:17:39.192Z,76.41
2018-02-09T02:32:38.515Z,76.09
2018-02-09T04:02:36.801Z,75.47
2018-02-09T04:47:40.123Z,75.18
2018-02-09T05:17:34.633Z,74.60
2018-02-09T06:17:34.485Z,73.24
2018-02-09T06:47:34.353Z,66.82
2018-02-09T07:02:34.324Z,66.77
2018-02-09T07:17:34.218Z,65.87
2018-02-09T07:32:35.300Z,62.79
2018-02-09T07:47:34.200Z,58.70
2018-02-09T08:02:34.132Z,58.69
2018-02-09T08:17:34.176Z,59.67
2018-02-09T08:32:34.107Z,60.70
2018-02-09T08:47:35.900Z,56.85
2018-02-09T09:02:37.050Z,52.71
2018-02-09T09:17:38.039Z,47.68
2018-02-09T09:32:35.188Z,45.43
2018-02-09T09:47:36.659Z,44.64
2018-02-09T10:02:40.601Z,45.15
2018-02-09T10:17:34.688Z,44.73
2018-02-09T10:32:36.622Z,43.99
2018-02-09T10:47:34.593Z,44.18
2018-02-09T11:02:34.769Z,45.44
2018-02-09T11:17:35.537Z,47.12
2018-02-09T11:32:34.446Z,45.72
2018-02-09T11:47:35.705Z,44.62
2018-02-09T12:02:34.628Z,44.18
2018-02-09T12:17:34.385Z,43.99
2018-02-09T12:32:34.398Z,45.31
2018-02-09T12:47:34.361Z,46.81
2018-02-09T13:02:34.534Z,48.01
2018-02-09T13:17:34.214Z,48.86
2018-02-09T13:32:47.004Z,49.42
2018-02-09T13:47:36.130Z,49.81
2018-02-09T14:02:35.459Z,50.69
2018-02-09T14:17:35.209Z,51.69
2018-02-09T14:32:37.670Z,52.78
2018-02-09T14:47:37.991Z,53.72
2018-02-09T15:02:35.283Z,54.54
2018-02-09T15:17:35.227Z,55.81
2018-02-09T15:32:35.229Z,56.91
2018-02-09T15:47:35.138Z,57.40
2018-02-09T16:02:35.196Z,58.33
2018-02-09T16:17:36.086Z,58.79
2018-02-09T16:32:35.085Z,59.91
2018-02-09T16:47:34.577Z,60.83
2018-02-09T17:02:35.108Z,61.42
2018-02-09T17:17:34.984Z,62.07
2018-02-09T17:47:34.658Z,63.44
2018-02-09T20:17:36.674Z,65.88
2018-02-09T21:02:36.946Z,66.94
2018-02-09T21:32:45.818Z,67.32
2018-02-09T21:47:34.926Z,67.34
2018-02-09T22:02:37.347Z,67.50
2018-02-09T22:17:35.352Z,67.81
2018-02-09T22:32:35.442Z,67.99
2018-02-09T22:47:37.443Z,68.33
2018-02-09T23:02:39.464Z,68.26
2018-02-09T23:17:35.224Z,68.15
2018-02-09T23:32:35.181Z,68.16
2018-02-09T23:47:35.220Z,68.02
